createdAt,value
2022-08-13T00:00:11.003Z,101012.56
2022-08-13T00:00:34.043Z,101016.31
2022-08-13T00:01:00.933Z,101006.44
2022-08-13T00:01:24.219Z,101008.28
2022-08-13T00:01:45.998Z,101013.75
2022-08-13T00:02:11.159Z,101014.63
2022-08-13T00:02:44.504Z,101015.03
2022-08-13T00:03:15.409Z,101013.47
2022-08-13T00:04:02.857Z,101012.47
2022-08-13T00:04:30.341Z,101018.63
2022-08-13T00:04:56.540Z,101016.53
2022-08-13T00:05:42.776Z,101015.34
2022-08-13T00:06:14.674Z,101015.78
2022-08-13T00:07:02.200Z,101007.59
2022-08-13T00:07:25.242Z,101011.19
2022-08-13T00:07:47.983Z,101015.66
2022-08-13T00:08:11.136Z,101012.06
2022-08-13T00:08:34.726Z,101014.03
2022-08-13T00:08:59.394Z,101017.78
2022-08-13T00:09:24.650Z,101010.34
2022-08-13T00:10:01.387Z,101015.66
2022-08-13T00:10:25.941Z,101015.41
2022-08-13T00:10:47.596Z,101005.22
2022-08-13T00:11:09.993Z,101017.72
2022-08-13T00:11:59.559Z,101015.00
2022-08-13T00:12:46.096Z,101013.81
2022-08-13T00:13:18.240Z,101023.03
2022-08-13T00:13:43.290Z,101013.81
2022-08-13T00:14:05.820Z,101020.31
2022-08-13T00:14:35.281Z,101021.00
2022-08-13T00:15:01.385Z,101021.00
2022-08-13T00:15:27.434Z,101015.25
2022-08-13T00:15:49.140Z,101021.56
2022-08-13T00:16:17.514Z,101022.56
2022-08-13T00:16:43.006Z,101013.81
2022-08-13T00:17:14.004Z,101025.13
2022-08-13T00:18:02.628Z,101024.00
2022-08-13T00:18:29.994Z,101023.13
2022-08-13T00:18:52.336Z,101017.38
2022-08-13T00:19:14.064Z,101009.81
2022-08-13T00:19:37.409Z,101022.69
2022-08-13T00:19:59.173Z,101017.94
2022-08-13T00:21:03.265Z,101024.41
2022-08-13T00:21:58.064Z,101016.22
2022-08-13T00:22:40.026Z,101021.69
2022-08-13T00:22:55.047Z,101021.69
2022-08-13T00:23:24.618Z,101030.72
2022-08-13T00:24:06.874Z,101023.69
2022-08-13T00:24:52.581Z,101027.03
2022-08-13T00:25:15.890Z,101021.56
2022-08-13T00:25:45.582Z,101025.00
2022-08-13T00:26:08.536Z,101023.13
2022-08-13T00:26:34.491Z,101022.28
2022-08-13T00:27:00.580Z,101024.72
2022-08-13T00:27:24.624Z,101025.59
2022-08-13T00:28:02.137Z,101027.16
2022-08-13T00:28:26.722Z,101027.72
2022-08-13T00:28:50.590Z,101009.13
2022-08-13T00:29:12.257Z,101024.13
2022-08-13T00:29:33.956Z,101026.72
2022-08-13T00:29:57.605Z,101028.44
2022-08-13T00:30:27.028Z,101032.03
2022-08-13T00:30:54.637Z,101031.00
2022-08-13T00:31:16.617Z,101028.59
2022-08-13T00:31:51.002Z,101018.84
2022-08-13T00:32:12.872Z,101029.31
2022-08-13T00:32:39.261Z,101031.00
2022-08-13T00:33:02.688Z,101037.34
2022-08-13T00:33:33.525Z,101028.91
2022-08-13T00:34:04.861Z,101025.13
2022-08-13T00:34:28.321Z,101032.75
2022-08-13T00:34:50.898Z,101028.59
2022-08-13T00:35:18.046Z,101025.72
2022-08-13T00:35:50.890Z,101029.31
2022-08-13T00:36:22.535Z,101021.13
2022-08-13T00:36:51.913Z,101030.44
2022-08-13T00:37:34.280Z,101028.59
2022-08-13T00:38:12.612Z,101030.44
2022-08-13T00:38:37.029Z,101021.56
2022-08-13T00:38:59.368Z,101018.00
2022-08-13T00:39:21.745Z,101025.13
2022-08-13T00:40:19.334Z,101021.56
2022-08-13T00:40:33.069Z,101027.16
2022-08-13T00:40:58.597Z,101024.31
2022-08-13T00:41:57.659Z,101021.03
2022-08-13T00:42:21.811Z,101020.16
2022-08-13T00:42:51.061Z,101017.44
2022-08-13T00:43:15.354Z,101020.88
2022-08-13T00:43:39.059Z,101019.88
2022-08-13T00:44:00.903Z,101019.03
2022-08-13T00:44:24.135Z,101021.56
2022-08-13T00:44:46.851Z,101023.16
2022-08-13T00:45:14.626Z,101016.00
2022-08-13T00:45:37.032Z,101024.03
2022-08-13T00:45:59.837Z,101015.84
2022-08-13T00:46:22.398Z,101014.69
2022-08-13T00:46:46.300Z,101015.53
2022-08-13T00:47:28.357Z,101018.16
2022-08-13T00:48:09.718Z,101021.75
2022-08-13T00:48:45.748Z,101029.75
2022-08-13T00:49:14.648Z,101019.88
2022-08-13T00:49:36.868Z,101017.16
2022-08-13T00:50:01.384Z,101022.44
2022-08-13T00:50:23.688Z,101020.88
2022-08-13T00:50:48.199Z,101017.16
2022-08-13T00:51:11.953Z,101022.44
2022-08-13T00:51:58.893Z,101026.19
2022-08-13T00:52:21.822Z,101020.75
2022-08-13T00:52:44.362Z,101021.31
2022-08-13T00:53:06.106Z,101030.78
2022-08-13T00:53:42.347Z,101010.28
2022-08-13T00:54:10.682Z,101026.47
2022-08-13T00:54:33.252Z,101019.31
2022-08-13T00:54:55.469Z,101017.16
2022-08-13T00:55:24.070Z,101017.28
2022-08-13T00:55:49.598Z,101020.16
2022-08-13T00:56:12.966Z,101020.88
2022-08-13T00:56:36.165Z,101009.97
2022-08-13T00:56:58.791Z,101013.56
2022-08-13T00:57:20.427Z,101016.13
2022-08-13T00:57:53.283Z,101020.75
2022-08-13T00:58:17.925Z,101020.75
2022-08-13T00:58:42.356Z,101014.56
2022-08-13T00:59:08.776Z,101018.16
2022-08-13T00:59:35.771Z,101012.72
2022-08-13T01:00:12.619Z,101020.34
2022-08-13T01:00:34.448Z,101023.06
2022-08-13T01:00:58.763Z,101020.34
2022-08-13T01:01:35.014Z,101027.66
2022-08-13T01:01:58.147Z,101020.63
2022-08-13T01:02:21.968Z,101015.88
2022-08-13T01:02:57.307Z,101009.72
2022-08-13T01:03:56.771Z,101013.28
2022-08-13T01:04:11.149Z,101016.47
2022-08-13T01:04:34.888Z,101013.19
2022-08-13T01:04:58.148Z,101020.38
2022-08-13T01:05:21.005Z,101014.03
2022-08-13T01:05:44.510Z,101006.72
2022-08-13T01:06:09.254Z,101015.91
2022-08-13T01:06:33.062Z,101015.19
2022-08-13T01:06:57.137Z,101008.00
2022-08-13T01:07:52.457Z,101014.19
2022-08-13T01:08:03.224Z,101017.50
2022-08-13T01:08:32.521Z,101011.19
2022-08-13T01:08:59.428Z,101017.50
2022-08-13T01:10:15.770Z,101010.63
2022-08-13T01:10:16.784Z,101020.53
2022-08-13T01:10:43.165Z,101009.19
2022-08-13T01:11:22.761Z,101007.91
2022-08-13T01:11:47.088Z,101019.81
2022-08-13T01:12:16.905Z,101012.03
2022-08-13T01:12:39.746Z,101009.75
2022-08-13T01:13:04.371Z,101015.19
2022-08-13T01:13:28.739Z,101008.03
2022-08-13T01:13:54.860Z,101011.75
2022-08-13T01:14:18.032Z,101016.38
2022-08-13T01:14:42.578Z,100988.41
2022-08-13T01:15:09.420Z,101022.38
2022-08-13T01:15:52.529Z,101010.75
2022-08-13T01:16:15.988Z,101018.22
2022-08-13T01:16:39.253Z,101010.75
2022-08-13T01:17:07.230Z,101015.19
2022-08-13T01:17:47.045Z,101016.94
2022-08-13T01:18:14.712Z,101021.66
2022-08-13T01:18:37.540Z,101020.50
2022-08-13T01:19:04.439Z,101008.75
2022-08-13T01:19:52.077Z,101017.81
2022-08-13T01:20:32.816Z,101015.63
2022-08-13T01:20:59.396Z,101020.22
2022-08-13T01:21:39.994Z,101014.22
2022-08-13T01:22:06.166Z,101006.47
2022-08-13T01:22:33.697Z,101012.63
2022-08-13T01:22:57.082Z,101016.22
2022-08-13T01:23:18.919Z,101011.06
2022-08-13T01:24:02.217Z,101013.78
2022-08-13T01:24:25.958Z,101013.78
2022-08-13T01:24:47.642Z,101010.34
2022-08-13T01:25:10.306Z,101011.94
2022-08-13T01:25:52.796Z,101009.66
2022-08-13T01:26:20.242Z,101010.22
2022-08-13T01:26:46.913Z,101010.09
2022-08-13T01:27:11.056Z,101009.34
2022-08-13T01:27:33.759Z,101007.06
2022-08-13T01:27:56.544Z,101007.63
2022-08-13T01:28:19.808Z,101028.44
2022-08-13T01:28:42.243Z,101006.94
2022-08-13T01:29:10.838Z,101011.22
2022-08-13T01:29:37.042Z,101015.66
2022-08-13T01:30:04.917Z,101014.81
2022-08-13T01:30:26.837Z,101008.34
2022-08-13T01:30:54.760Z,101003.19
2022-08-13T01:31:19.337Z,101011.78
2022-08-13T01:31:42.724Z,101018.09
2022-08-13T01:32:08.421Z,101011.78
2022-08-13T01:32:54.724Z,101015.53
2022-08-13T01:33:19.031Z,101013.06
2022-08-13T01:33:48.390Z,101010.50
2022-08-13T01:34:24.478Z,101007.75
2022-08-13T01:34:52.117Z,101009.94
2022-08-13T01:35:16.593Z,101006.78
2022-08-13T01:35:42.422Z,101012.53
2022-08-13T01:36:05.900Z,101009.50
2022-08-13T01:36:55.428Z,101013.09
2022-08-13T01:37:21.309Z,101010.66
2022-08-13T01:38:03.816Z,101014.25
2022-08-13T01:38:28.987Z,101014.50
2022-08-13T01:38:50.956Z,101014.81
2022-08-13T01:39:17.844Z,101015.69
2022-08-13T01:39:45.256Z,101016.53
2022-08-13T01:40:09.781Z,101019.25
2022-08-13T01:40:32.304Z,101016.53
2022-08-13T01:40:54.089Z,100996.84
2022-08-13T01:41:16.817Z,101014.38
2022-08-13T01:41:54.463Z,101019.69
2022-08-13T01:42:21.463Z,101011.34
2022-08-13T01:42:59.301Z,101022.41
2022-08-13T01:43:51.626Z,101014.47
2022-08-13T01:44:18.854Z,101013.63
2022-08-13T01:44:41.968Z,101015.38
2022-08-13T01:45:05.410Z,101017.09
2022-08-13T01:45:28.108Z,101010.19
2022-08-13T01:45:53.063Z,101010.78
2022-08-13T01:46:17.876Z,101011.53
2022-08-13T01:46:58.388Z,101019.06
2022-08-13T01:47:53.767Z,101015.38
2022-08-13T01:48:41.271Z,101018.66
2022-08-13T01:49:24.548Z,101013.22
2022-08-13T01:50:29.000Z,101018.38
2022-08-13T01:50:54.852Z,101019.66
2022-08-13T01:51:23.332Z,101018.63
2022-08-13T01:51:52.040Z,101015.91
2022-08-13T01:52:13.887Z,101018.94
2022-08-13T01:52:43.385Z,101015.03
2022-08-13T01:53:09.259Z,101018.63
2022-08-13T01:53:31.116Z,101015.03
2022-08-13T01:53:59.272Z,101024.81
2022-08-13T01:54:38.038Z,101022.22
2022-08-13T01:55:02.898Z,101019.50
2022-08-13T01:56:04.634Z,101015.78
2022-08-13T01:56:19.073Z,101008.78
2022-08-13T01:56:42.121Z,101013.34
2022-08-13T01:57:06.990Z,101015.34
2022-08-13T01:57:44.252Z,101022.38
2022-08-13T01:58:08.301Z,101019.94
2022-08-13T01:58:33.883Z,101018.63
2022-08-13T01:59:08.998Z,101012.19
2022-08-13T02:00:00.421Z,101024.69
2022-08-13T02:00:27.561Z,101022.66
2022-08-13T02:00:52.177Z,101021.94
2022-08-13T02:01:15.126Z,101023.38
2022-08-13T02:01:41.563Z,101023.09
2022-08-13T02:02:05.697Z,101023.94
2022-08-13T02:02:49.590Z,101021.09
2022-08-13T02:03:13.973Z,101027.94
2022-08-13T02:03:41.815Z,101018.91
2022-08-13T02:04:07.505Z,101018.91
2022-08-13T02:04:33.508Z,101019.78
2022-08-13T02:05:01.699Z,101021.22
2022-08-13T02:06:19.982Z,101021.50
2022-08-13T02:06:23.125Z,101020.47
2022-08-13T02:06:50.581Z,101019.22
2022-08-13T02:07:16.984Z,101020.91
2022-08-13T02:08:02.375Z,101023.63
2022-08-13T02:08:25.036Z,101017.19
2022-08-13T02:08:51.254Z,101021.78
2022-08-13T02:09:23.639Z,101020.03
2022-08-13T02:10:00.132Z,101022.06
2022-08-13T02:10:23.650Z,101020.03
2022-08-13T02:10:48.351Z,101020.91
2022-08-13T02:11:11.948Z,101014.47
2022-08-13T02:11:35.639Z,101015.34
2022-08-13T02:12:10.564Z,101019.91
2022-08-13T02:12:35.526Z,101017.63
2022-08-13T02:12:58.214Z,101014.75
2022-08-13T02:13:25.622Z,101014.75
2022-08-13T02:13:50.010Z,101014.91
2022-08-13T02:14:14.995Z,101021.06
2022-08-13T02:14:46.381Z,101013.91
2022-08-13T02:15:10.153Z,101024.50
2022-08-13T02:15:42.127Z,101011.88
2022-08-13T02:16:04.565Z,101018.34
2022-08-13T02:16:33.027Z,101017.31
2022-08-13T02:16:54.883Z,101018.63
2022-08-13T02:18:00.776Z,101016.34
2022-08-13T02:18:19.759Z,101021.94
2022-08-13T02:18:41.701Z,101018.63
2022-08-13T02:19:19.320Z,101021.50
2022-08-13T02:19:46.520Z,101022.59
2022-08-13T02:20:10.742Z,101015.59
2022-08-13T02:20:36.226Z,101015.31
2022-08-13T02:21:00.531Z,101017.91
2022-08-13T02:21:23.785Z,101017.16
2022-08-13T02:21:45.712Z,101020.75
2022-08-13T02:22:07.737Z,101017.28
2022-08-13T02:22:31.218Z,101020.75
2022-08-13T02:22:54.909Z,101027.19
2022-08-13T02:23:20.555Z,101020.88
2022-08-13T02:24:04.774Z,101020.75
2022-08-13T02:24:26.600Z,101016.00
2022-08-13T02:24:52.424Z,101022.91
2022-08-13T02:25:16.664Z,101009.56
2022-08-13T02:25:39.269Z,101016.63
2022-08-13T02:26:02.066Z,101022.19
2022-08-13T02:26:26.759Z,101013.88
2022-08-13T02:26:54.697Z,101015.88
2022-08-13T02:27:17.021Z,101009.56
2022-08-13T02:27:39.584Z,101012.47
2022-08-13T02:28:03.235Z,101011.84
2022-08-13T02:28:27.112Z,101010.00
2022-08-13T02:28:49.572Z,101010.72
2022-08-13T02:29:13.535Z,101007.00
2022-08-13T02:29:35.673Z,101016.75
2022-08-13T02:29:58.036Z,101023.19
2022-08-13T02:30:20.741Z,101016.75
2022-08-13T02:30:43.548Z,101013.88
2022-08-13T02:31:08.290Z,101020.88
2022-08-13T02:32:16.119Z,101020.03
2022-08-13T02:32:26.073Z,101021.63
2022-08-13T02:32:51.460Z,101017.91
2022-08-13T02:33:17.799Z,101023.19
2022-08-13T02:33:43.128Z,101019.47
2022-08-13T02:34:08.708Z,101021.31
2022-08-13T02:34:37.184Z,101020.63
2022-08-13T02:34:59.509Z,101014.56
2022-08-13T02:35:26.142Z,101016.31
2022-08-13T02:36:01.051Z,101019.03
2022-08-13T02:36:26.316Z,101004.53
2022-08-13T02:36:56.204Z,101017.59
2022-08-13T02:37:46.031Z,101018.00
2022-08-13T02:38:16.000Z,101015.84
2022-08-13T02:38:38.886Z,101017.00
2022-08-13T02:39:05.914Z,101027.59
2022-08-13T02:39:43.039Z,101021.28
2022-08-13T02:40:31.013Z,101024.44
2022-08-13T02:41:15.261Z,101018.88
2022-08-13T02:41:52.140Z,101023.59
2022-08-13T02:42:15.953Z,101024.44
2022-08-13T02:42:38.317Z,101021.84
2022-08-13T02:43:03.419Z,101028.16
2022-08-13T02:43:26.570Z,101027.28
2022-08-13T02:43:57.566Z,101022.88
2022-08-13T02:44:23.794Z,101021.28
2022-08-13T02:44:58.042Z,101031.56
2022-08-13T02:45:21.691Z,101027.59
2022-08-13T02:45:46.219Z,101028.59
2022-08-13T02:46:08.203Z,101024.88
2022-08-13T02:46:29.899Z,101023.28
2022-08-13T02:46:52.591Z,101022.94
2022-08-13T02:47:14.734Z,101023.66
2022-08-13T02:47:44.477Z,101028.09
2022-08-13T02:48:09.199Z,101017.09
2022-08-13T02:48:41.284Z,101008.78
2022-08-13T02:49:03.645Z,101017.09
2022-08-13T02:49:44.428Z,101023.28
2022-08-13T02:50:11.179Z,101025.84
2022-08-13T02:50:45.344Z,101023.88
2022-08-13T02:51:14.192Z,100992.59
2022-08-13T02:52:08.102Z,101023.00
2022-08-13T02:52:21.143Z,101007.19
2022-08-13T02:52:49.916Z,101021.72
2022-08-13T02:53:30.412Z,101018.72
2022-08-13T02:53:55.446Z,101021.44
2022-08-13T02:54:21.853Z,101018.69
2022-08-13T02:54:54.848Z,101019.44
2022-08-13T02:55:19.405Z,101027.59
2022-08-13T02:55:42.773Z,101019.44
2022-08-13T02:56:10.604Z,101015.97
2022-08-13T02:56:34.051Z,101018.69
2022-08-13T02:56:55.854Z,101023.28
2022-08-13T02:57:18.957Z,101021.56
2022-08-13T02:57:40.612Z,101002.31
2022-08-13T02:58:05.521Z,101021.56
2022-08-13T02:58:27.416Z,101022.28
2022-08-13T02:58:50.262Z,101017.81
2022-08-13T02:59:42.806Z,101023.13
2022-08-13T03:00:05.425Z,101023.13
2022-08-13T03:00:31.848Z,101026.00
2022-08-13T03:00:58.905Z,101024.13
2022-08-13T03:01:21.542Z,101026.84
2022-08-13T03:01:54.917Z,101017.50
2022-08-13T03:02:20.532Z,101020.69
2022-08-13T03:02:46.148Z,101025.16
2022-08-13T03:03:11.341Z,101024.69
2022-08-13T03:03:39.480Z,101024.53
2022-08-13T03:04:02.715Z,101026.38
2022-08-13T03:04:32.585Z,101025.66
2022-08-13T03:04:54.892Z,101024.06
2022-08-13T03:05:19.514Z,101019.66
2022-08-13T03:05:51.360Z,101025.94
2022-08-13T03:06:22.180Z,101018.91
2022-08-13T03:06:46.281Z,101025.81
2022-08-13T03:07:15.763Z,101027.66
2022-08-13T03:07:51.568Z,101030.25
2022-08-13T03:08:16.471Z,101022.09
2022-08-13T03:09:00.064Z,101010.03
2022-08-13T03:09:23.909Z,101026.13
2022-08-13T03:09:46.872Z,101032.47
2022-08-13T03:10:13.203Z,101027.88
2022-08-13T03:10:40.225Z,101023.41
2022-08-13T03:11:02.751Z,101024.38
2022-08-13T03:11:24.549Z,101026.13
2022-08-13T03:11:56.429Z,101029.72
2022-08-13T03:12:28.952Z,101027.00
2022-08-13T03:13:05.528Z,101027.88
2022-08-13T03:13:30.896Z,101021.66
2022-08-13T03:14:09.654Z,101024.13
2022-08-13T03:14:33.377Z,101023.53
2022-08-13T03:14:56.437Z,101029.84
2022-08-13T03:15:19.610Z,101016.34
2022-08-13T03:15:55.050Z,101025.94
2022-08-13T03:16:27.856Z,101028.94
2022-08-13T03:16:49.676Z,101020.66
2022-08-13T03:17:22.667Z,101025.22
2022-08-13T03:17:46.214Z,101026.22
2022-08-13T03:18:15.815Z,101029.22
2022-08-13T03:18:51.804Z,101026.91
2022-08-13T03:19:16.622Z,101024.03
2022-08-13T03:19:39.091Z,101021.06
2022-08-13T03:20:10.153Z,101029.75
2022-08-13T03:20:36.445Z,101025.31
2022-08-13T03:20:59.728Z,101025.19
2022-08-13T03:21:40.941Z,101026.06
2022-08-13T03:22:07.274Z,101033.94
2022-08-13T03:22:28.929Z,101036.66
2022-08-13T03:22:52.489Z,101030.34
2022-08-13T03:23:14.341Z,101030.47
2022-08-13T03:23:43.508Z,101028.91
2022-08-13T03:24:08.379Z,101034.91
2022-08-13T03:24:31.867Z,101034.91
2022-08-13T03:24:54.529Z,101032.19
2022-08-13T03:25:17.195Z,101027.75
2022-08-13T03:25:41.241Z,101030.75
2022-08-13T03:26:05.815Z,101028.91
2022-08-13T03:26:27.683Z,101030.63
2022-08-13T03:26:53.077Z,101031.50
2022-08-13T03:27:16.859Z,101035.09
2022-08-13T03:27:40.212Z,101025.03
2022-08-13T03:28:03.356Z,101036.06
2022-08-13T03:28:26.216Z,101034.91
2022-08-13T03:28:55.693Z,101030.34
2022-08-13T03:29:19.197Z,101034.78
2022-08-13T03:30:03.927Z,101030.34
2022-08-13T03:30:30.838Z,101030.47
2022-08-13T03:30:55.429Z,101031.34
2022-08-13T03:31:18.331Z,101026.06
2022-08-13T03:31:52.544Z,101029.63
2022-08-13T03:32:31.680Z,101025.31
2022-08-13T03:32:54.976Z,101030.75
2022-08-13T03:33:18.845Z,101028.91
2022-08-13T03:34:03.498Z,101027.19
2022-08-13T03:34:25.104Z,101035.75
2022-08-13T03:34:50.399Z,101026.72
2022-08-13T03:35:17.130Z,101025.00
2022-08-13T03:35:58.840Z,101033.31
2022-08-13T03:36:21.543Z,101026.88
2022-08-13T03:36:45.605Z,101028.59
2022-08-13T03:37:08.246Z,101030.59
2022-08-13T03:37:29.876Z,101014.81
2022-08-13T03:38:01.118Z,101027.59
2022-08-13T03:38:23.199Z,101022.88
2022-08-13T03:38:47.979Z,101031.75
2022-08-13T03:39:09.690Z,101024.31
2022-08-13T03:39:33.941Z,101022.47
2022-08-13T03:40:01.771Z,101026.19
2022-08-13T03:40:25.982Z,101021.72
2022-08-13T03:41:12.470Z,101022.47
2022-08-13T03:41:39.644Z,101024.47
2022-08-13T03:42:19.788Z,101019.19
2022-08-13T03:42:54.597Z,101022.31
2022-08-13T03:43:16.471Z,101024.47
2022-08-13T03:43:54.088Z,101009.09
2022-08-13T03:44:17.003Z,101028.31
2022-08-13T03:44:42.084Z,101022.88
2022-08-13T03:45:04.942Z,101020.16
2022-08-13T03:45:28.474Z,101023.00
2022-08-13T03:45:50.657Z,101026.72
2022-08-13T03:46:18.027Z,101024.53
2022-08-13T03:46:39.840Z,101024.72
2022-08-13T03:47:01.510Z,101021.97
2022-08-13T03:47:30.090Z,101008.88
2022-08-13T03:47:54.605Z,101023.97
2022-08-13T03:48:17.236Z,101015.69
2022-08-13T03:48:39.419Z,101024.41
2022-08-13T03:49:03.558Z,101022.69
2022-08-13T03:49:29.135Z,101029.97
2022-08-13T03:49:52.226Z,101021.13
2022-08-13T03:50:15.532Z,101025.69
2022-08-13T03:50:37.834Z,101021.97
2022-08-13T03:51:02.528Z,101026.44
2022-08-13T03:51:35.608Z,101022.81
2022-08-13T03:51:59.579Z,101021.66
2022-08-13T03:52:33.527Z,101021.53
2022-08-13T03:53:02.630Z,101015.06
2022-08-13T03:53:29.477Z,101024.06
2022-08-13T03:54:05.098Z,101016.91
2022-08-13T03:54:26.817Z,101022.19
2022-08-13T03:54:50.865Z,101015.06
2022-08-13T03:55:20.096Z,101004.00
2022-08-13T03:55:44.102Z,101019.63
2022-08-13T03:56:10.403Z,101006.97
2022-08-13T03:56:36.292Z,101017.03
2022-08-13T03:57:01.675Z,101022.34
2022-08-13T03:57:24.111Z,101021.34
2022-08-13T03:58:02.386Z,101023.06
2022-08-13T03:58:30.726Z,101024.91
2022-08-13T03:58:54.783Z,101023.06
2022-08-13T03:59:18.761Z,101022.34
2022-08-13T03:59:48.988Z,101020.50
2022-08-13T04:00:13.335Z,101026.06
2022-08-13T04:00:38.191Z,101022.34
2022-08-13T04:01:02.628Z,101024.06
2022-08-13T04:01:26.113Z,101021.34
2022-08-13T04:01:57.086Z,101023.22
2022-08-13T04:02:19.404Z,101024.06
2022-08-13T04:02:43.609Z,101021.63
2022-08-13T04:03:15.498Z,101017.16
2022-08-13T04:03:43.374Z,101016.47
2022-08-13T04:04:09.784Z,101015.91
2022-08-13T04:04:36.045Z,101013.59
2022-08-13T04:04:58.049Z,101023.81
2022-08-13T04:05:21.101Z,101019.47
2022-08-13T04:06:03.416Z,101017.50
2022-08-13T04:06:27.549Z,101029.38
2022-08-13T04:06:49.334Z,101025.78
2022-08-13T04:07:12.624Z,101025.66
2022-08-13T04:07:41.302Z,101014.72
2022-08-13T04:08:09.705Z,101024.47
2022-08-13T04:08:38.266Z,101030.22
2022-08-13T04:09:04.701Z,101021.50
2022-08-13T04:09:27.538Z,101018.16
2022-08-13T04:09:55.118Z,101028.19
2022-08-13T04:10:21.834Z,101027.47
2022-08-13T04:10:50.545Z,101020.88
2022-08-13T04:11:20.475Z,101025.00
2022-08-13T04:11:44.439Z,101027.38
2022-08-13T04:12:11.490Z,101034.38
2022-08-13T04:12:35.642Z,101018.94
2022-08-13T04:13:00.384Z,101022.53
2022-08-13T04:14:05.033Z,101033.41
2022-08-13T04:14:36.168Z,101031.94
2022-08-13T04:14:50.013Z,101029.34
2022-08-13T04:15:23.897Z,101033.09
2022-08-13T04:15:47.074Z,101027.78
2022-08-13T04:16:12.328Z,101037.66
2022-08-13T04:16:34.571Z,101026.63
2022-08-13T04:16:57.694Z,101030.38
2022-08-13T04:17:25.541Z,101028.66
2022-08-13T04:17:50.184Z,101032.22
2022-08-13T04:18:14.591Z,101028.78
2022-08-13T04:18:37.923Z,101029.06
2022-08-13T04:19:02.020Z,101028.91
2022-08-13T04:19:28.090Z,101029.75
2022-08-13T04:19:49.747Z,101037.19
2022-08-13T04:20:13.393Z,101021.03
2022-08-13T04:20:36.029Z,101034.59
2022-08-13T04:20:59.005Z,101024.72
2022-08-13T04:21:22.965Z,101036.47
2022-08-13T04:21:44.736Z,101039.19
2022-08-13T04:22:11.328Z,101039.06
2022-08-13T04:22:34.184Z,101042.63
2022-08-13T04:22:57.944Z,101034.34
2022-08-13T04:23:20.367Z,101031.88
2022-08-13T04:23:43.333Z,101034.72
2022-08-13T04:24:15.875Z,101031.16
2022-08-13T04:24:38.230Z,101038.44
2022-08-13T04:25:27.374Z,101037.44
2022-08-13T04:25:50.715Z,101034.28
2022-08-13T04:26:15.133Z,101032.56
2022-08-13T04:26:52.355Z,101030.56
2022-08-13T04:27:15.378Z,101033.16
2022-08-13T04:27:40.222Z,101029.47
2022-08-13T04:28:03.225Z,101032.88
2022-08-13T04:28:25.582Z,101032.63
2022-08-13T04:28:48.467Z,101036.34
2022-08-13T04:29:12.732Z,101028.91
2022-08-13T04:29:49.812Z,101026.34
2022-08-13T04:30:17.494Z,101031.63
2022-08-13T04:30:42.650Z,101037.31
2022-08-13T04:31:06.373Z,101034.34
2022-08-13T04:31:45.919Z,101039.63
2022-08-13T04:32:09.703Z,101033.94
2022-08-13T04:32:57.861Z,101038.53
2022-08-13T04:34:30.529Z,101039.75
2022-08-13T04:34:31.482Z,101035.66
2022-08-13T04:34:58.405Z,101044.22
2022-08-13T04:35:31.463Z,101035.34
2022-08-13T04:36:02.700Z,101042.47
2022-08-13T04:36:28.330Z,101046.94
2022-08-13T04:36:50.694Z,101041.03
2022-08-13T04:37:21.170Z,101040.03
2022-08-13T04:37:45.724Z,101043.22
2022-08-13T04:38:08.777Z,101032.34
2022-08-13T04:38:31.000Z,101038.66
2022-08-13T04:38:52.630Z,101035.06
2022-08-13T04:39:15.172Z,101037.66
2022-08-13T04:40:07.552Z,101033.22
2022-08-13T04:40:29.897Z,101039.53
2022-08-13T04:40:54.271Z,101040.50
2022-08-13T04:41:17.529Z,101039.13
2022-08-13T04:41:39.425Z,101039.00
2022-08-13T04:42:01.358Z,101028.91
2022-08-13T04:42:33.449Z,101039.75
2022-08-13T04:42:59.431Z,101036.91
2022-08-13T04:43:21.148Z,101047.66
2022-08-13T04:43:45.850Z,101036.53
2022-08-13T04:44:22.651Z,101039.97
2022-08-13T04:44:50.730Z,101039.25
2022-08-13T04:45:14.816Z,101041.94
2022-08-13T04:45:37.256Z,101044.66
2022-08-13T04:46:01.480Z,101035.81
2022-08-13T04:46:29.093Z,101036.41
2022-08-13T04:46:51.872Z,101038.25
2022-08-13T04:47:15.261Z,101041.81
2022-08-13T04:47:37.555Z,101039.13
2022-08-13T04:48:04.797Z,101039.00
2022-08-13T04:48:29.269Z,101043.56
2022-08-13T04:48:50.901Z,101032.22
2022-08-13T04:49:13.308Z,101039.53
2022-08-13T04:49:38.282Z,101035.81
2022-08-13T04:50:09.923Z,101038.38
2022-08-13T04:50:36.293Z,101033.81
2022-08-13T04:50:58.160Z,101030.38
2022-08-13T04:51:24.211Z,101036.66
2022-08-13T04:51:45.992Z,101037.03
2022-08-13T04:52:08.603Z,101040.78
2022-08-13T04:52:30.868Z,101042.75
2022-08-13T04:52:52.879Z,101037.44
2022-08-13T04:53:27.759Z,101039.06
2022-08-13T04:53:50.980Z,101033.88
2022-08-13T04:54:12.865Z,101036.88
2022-08-13T04:54:34.572Z,101038.72
2022-08-13T04:54:56.230Z,101038.00
2022-08-13T04:55:20.579Z,101041.72
2022-08-13T04:56:08.591Z,101043.44
2022-08-13T04:56:26.963Z,101039.88
2022-08-13T04:56:49.765Z,101041.72
2022-08-13T04:57:11.867Z,101042.41
2022-08-13T04:57:56.718Z,101045.13
2022-08-13T04:58:16.861Z,101039.69
2022-08-13T04:58:38.661Z,101041.56
2022-08-13T04:59:03.015Z,101041.56
2022-08-13T04:59:25.527Z,101049.72
2022-08-13T04:59:52.697Z,101031.44
2022-08-13T05:00:21.468Z,101041.31
2022-08-13T05:00:50.697Z,101040.31
2022-08-13T05:01:53.932Z,101036.88
2022-08-13T05:02:01.369Z,101047.16
2022-08-13T05:02:24.916Z,101046.28
2022-08-13T05:02:48.032Z,101041.56
2022-08-13T05:03:12.991Z,101042.41
2022-08-13T05:03:43.808Z,101047.72
2022-08-13T05:04:17.809Z,101041.72
2022-08-13T05:04:52.221Z,101050.44
2022-08-13T05:05:17.780Z,101043.28
2022-08-13T05:05:42.472Z,101045.13
2022-08-13T05:06:05.758Z,101049.13
2022-08-13T05:06:30.551Z,101045.22
2022-08-13T05:06:53.129Z,101040.38
2022-08-13T05:07:16.320Z,101048.53
2022-08-13T05:07:39.216Z,101047.28
2022-08-13T05:08:01.869Z,101049.00
2022-08-13T05:08:27.169Z,101044.28
2022-08-13T05:08:55.771Z,101053.16
2022-08-13T05:09:17.848Z,101050.31
2022-08-13T05:09:39.636Z,101047.28
2022-08-13T05:10:12.084Z,101051.13
2022-08-13T05:10:39.597Z,101040.97
2022-08-13T05:11:03.816Z,101047.00
2022-08-13T05:11:37.130Z,101052.59
2022-08-13T05:12:04.806Z,101054.44
2022-08-13T05:12:42.584Z,101049.88
2022-08-13T05:13:22.483Z,101050.00
2022-08-13T05:13:45.170Z,101038.19
2022-08-13T05:14:09.933Z,101050.00
2022-08-13T05:14:37.513Z,101050.00
2022-08-13T05:14:59.675Z,101050.84
2022-08-13T05:15:41.532Z,101054.31
2022-08-13T05:16:07.415Z,101058.25
2022-08-13T05:16:29.470Z,101050.97
2022-08-13T05:16:53.954Z,101058.00
2022-08-13T05:17:21.813Z,101050.97
2022-08-13T05:17:46.953Z,101050.72
2022-08-13T05:18:10.058Z,101048.72
2022-08-13T05:18:47.242Z,101052.19
2022-08-13T05:19:10.032Z,101054.31